Terminal Aerodrome Forecast
Issued by NWS

Home | Current Version | Previous Version | Graphics & Text | Print | Product List | Glossary On
Versions: 1 2 3 4 5 6 7 8 9 10 11 12 13 14 15 16 17 18 19 20 21 22 23 24 25 26
000
FTUS43 KABR 210521
TAFPIR
TAF
KPIR 210521Z 2106/2206 24007KT 1SM BR OVC002
     FM210800 08004KT 1/2SM FZFG OVC003
     FM211600 VRB03KT 3SM BR OVC015
     FM211800 29006KT P6SM OVC035
     FM220200 30006KT P6SM BKN030=

USA.gov is the U.S. government's official web portal to all federal, state and local government web resources and services.